Impacts TAF Board
For situational awareness. Not to be used for flight planning purposes.
IDs:

KISM - Kissimmee Muni, FL, US

Issued at 1749 UTC 21 Sep 2021
Updated at 2114 UTC 21 Sep 2021
Potential Impact None Slight Moderate High
Time2056Z 21/22Z 21/23Z 22/00Z 22/01Z 22/02Z 22/03Z 22/04Z 22/05Z 22/06Z 22/07Z 22/08Z 22/09Z 22/10Z>>
Type OBS PRVL
  [TEMP]  
PRVL PRVL PRVL PRVL PRVL PRVL PRVL PRVL PRVL PRVL PRVL PRVL
VIS 10 >6
  [3]  
5 5 >6 >6 >6 >6 >6 >6 >6 >6 >6 >6
CIG 31 --
  [30]  
200 200 -- -- -- -- -- -- -- -- -- --
Cover BKN SCT
  [BKN]  
BKN BKN SCT SCT SCT SCT SCT SCT SCT SCT SCT SCT
FltCat VFR VFR
  [MVFR]  
MVFR MVFR VFR VFR VFR VFR VFR VFR VFR VFR VFR VFR
WX -RA VCTS
  [TSRA]  
-SHRA -SHRA -- -- -- -- -- -- -- -- -- --
WDir 160 120
[120]
140 140 VRB VRB VRB VRB VRB VRB VRB VRB VRB VRB
WSpd 6 7
  [15]  
7 7 4 4 4 4 4 4 4 4 4 4
WGst -- --
  [25]  
-- -- -- -- -- -- -- -- -- -- -- --
Raw TAF
KISM 211749Z 2118/2218 33006KT P6SM VCSH SCT028 BKN040
  FM211900 12007KT P6SM VCTS SCT030CB SCT120
  TEMPO 2119/2123 12015G25KT 3SM TSRA BKN030CB
  FM212300 14007KT 5SM -SHRA SCT035 BKN200
  FM220100 VRB04KT P6SM FEW035 SCT150
  FM221700 24006KT P6SM VCSH SCT025 SCT050 BKN250 AMD NOT SKED


Raw METAR
KISM 212056Z 16006KT 10SM -RA FEW023 BKN031 25/24 A3002 RMK AO2 LTG DSNT N TSE23B24E39 SLP165 6//// T02500239 57010 PNO $
KISM 212045Z 15007KT 10SM -RA SCT023 OVC033 25/24 A3002 RMK AO2 TSE23B24E39 PNO $
KISM 212024Z 14009KT 6SM VCTS -RA BR SCT023 OVC035 24/23 A3002 RMK AO2 LTG DSNT N AND SW TSE23B24 PNO $
KISM 212017Z 13011KT 3SM TSRA BR FEW025 BKN035 OVC043 24/23 A3005 RMK AO2 LTG DSNT N AND SW PNO $
KISM 212010Z 14009KT 1 3/4SM +TSRA BR FEW012 BKN035 OVC043 24/23 A3005 RMK AO2 LTG DSNT N PNO $
KISM 212000Z 12012G20KT 1 3/4SM VCTS +RA BR FEW012 BKN025 OVC041 24/23 A3005 RMK AO2 LTG DSNT N PNO $
KISM 211956Z 12017G20KT 3SM VCTS +RA BR FEW012 BKN025 OVC043 25/23 A3005 RMK AO2 RAB27 SLP175 T02500233 PNO $
KISM 211946Z 12013KT 10SM -TSRA FEW009 BKN025 OVC041 26/24 A3003 RMK AO2 LTG DSNT S AND SW RAB27 PNO $
KISM 211856Z 12015G21KT 10SM VCTS SCT041 33/22 A3002 RMK AO2 LTG DSNT NE TSB51 SLP165 T03300220 PNO $

METAR Board
Radar Display
Forecast Discussion
For situational awareness. Not to be used for flight planning purposes.